EGPN/DND METAR and TAF weather

Enter ICAO airport designator
Station Type Date Time Source
EGPN METAR 2019/06/17 12:20 UTC NOAA

EGPN 171220Z 24008KT 9000 SHRA FEW020 SCT032 13/12 Q1008


Station Type Date Time Source
EGPN Decoded METAR 2019/06/17 12:20 UTC NOAA

Dundee / Riverside, United Kingdom (EGPN) 56-27N 003-01W
Jun 17, 2019 - 08:20 AM EDT / 2019.06.17 1220 UTC
Wind: from the WSW (240 degrees) at 9 MPH (8 KT):0
Visibility: 5 mile(s):0
Sky conditions: partly cloudy
Weather: rain showers
Temperature: 55 F (13 C)
Dew Point: 53 F (12 C)
Relative Humidity: 93%
Pressure (altimeter): 29.77 in. Hg (1008 hPa)
ob: EGPN 171220Z 24008KT 9000 SHRA FEW020 SCT032 13/12 Q1008
cycle: 12

Station Type Date Time Source
EGPN TAF 2019/01/15 18:56 UTC NOAA

TAF EGPN 151750Z 1518/1621 CNL

Example: see airport list